createdAt,value
2023-03-24T00:00:48.220Z,3.63
2023-03-24T00:03:17.099Z,3.90
2023-03-24T00:05:44.729Z,2.58
2023-03-24T00:08:11.272Z,2.88
2023-03-24T00:10:37.685Z,3.13
2023-03-24T00:13:04.324Z,2.80
2023-03-24T00:15:31.357Z,4.57
2023-03-24T00:17:58.559Z,3.25
2023-03-24T00:20:26.111Z,5.10
2023-03-24T00:22:58.450Z,3.33
2023-03-24T00:25:28.033Z,3.00
2023-03-24T00:27:56.176Z,3.70
2023-03-24T00:30:24.982Z,3.72
2023-03-24T00:32:51.844Z,2.75
2023-03-24T00:35:18.848Z,3.35
2023-03-24T00:37:46.117Z,2.83
2023-03-24T00:40:16.388Z,3.58
2023-03-24T00:42:47.666Z,4.35
2023-03-24T00:45:18.005Z,5.47
2023-03-24T00:47:44.796Z,3.72
2023-03-24T00:50:18.625Z,3.00
2023-03-24T00:52:48.008Z,3.30
2023-03-24T00:55:16.015Z,2.92
2023-03-24T00:57:50.261Z,3.25
2023-03-24T01:00:21.030Z,5.22
2023-03-24T01:02:53.534Z,4.85
2023-03-24T01:05:21.899Z,4.60
2023-03-24T01:07:52.960Z,5.15
2023-03-24T01:10:26.014Z,4.20
2023-03-24T01:12:58.179Z,3.47
2023-03-24T01:15:29.503Z,4.32
2023-03-24T01:17:57.583Z,5.45
2023-03-24T01:20:24.904Z,5.35
2023-03-24T01:22:52.006Z,3.08
2023-03-24T01:25:22.499Z,3.22
2023-03-24T01:27:50.679Z,2.88
2023-03-24T01:30:21.025Z,2.70
2023-03-24T01:32:47.606Z,3.72
2023-03-24T01:35:14.650Z,2.35
2023-03-24T01:37:41.220Z,3.25
2023-03-24T01:40:11.539Z,3.25
2023-03-24T01:42:39.617Z,2.40
2023-03-24T01:45:43.944Z,2.80
2023-03-24T01:50:46.515Z,3.15
2023-03-24T01:53:13.485Z,3.42
2023-03-24T01:55:40.440Z,2.60
2023-03-24T01:58:08.738Z,3.15
2023-03-24T02:00:49.883Z,3.33
2023-03-24T02:03:46.735Z,4.05
2023-03-24T02:06:15.108Z,4.53
2023-03-24T02:08:48.266Z,2.88
2023-03-24T02:11:14.794Z,3.40
2023-03-24T02:13:51.155Z,3.15
2023-03-24T02:16:36.210Z,4.43
2023-03-24T02:19:24.949Z,2.88
2023-03-24T02:22:10.756Z,3.42
2023-03-24T02:25:19.624Z,5.10
2023-03-24T02:28:04.914Z,4.13
2023-03-24T02:30:43.823Z,5.60
2023-03-24T02:33:44.517Z,4.90
2023-03-24T02:36:30.211Z,5.00
2023-03-24T02:39:18.745Z,6.88
2023-03-24T02:42:21.103Z,8.18
2023-03-24T02:45:18.214Z,5.45
2023-03-24T02:48:19.555Z,5.43
2023-03-24T02:50:56.317Z,7.10
2023-03-24T02:53:39.004Z,6.03
2023-03-24T02:56:44.007Z,3.78
2023-03-24T02:59:37.430Z,4.97
2023-03-24T03:02:23.520Z,4.80
2023-03-24T03:05:06.751Z,4.78
2023-03-24T03:07:37.309Z,4.53
2023-03-24T03:10:13.513Z,6.35
2023-03-24T03:12:43.802Z,4.30
2023-03-24T03:15:16.596Z,4.50
2023-03-24T03:17:53.119Z,3.13
2023-03-24T03:20:24.703Z,3.65
2023-03-24T03:23:00.671Z,3.45
2023-03-24T03:25:33.227Z,4.35
2023-03-24T03:28:04.594Z,2.88
2023-03-24T03:30:37.742Z,4.78
2023-03-24T03:33:10.156Z,3.40
2023-03-24T03:35:42.205Z,2.97
2023-03-24T03:38:22.971Z,2.50
2023-03-24T03:40:56.077Z,4.35
2023-03-24T03:43:28.085Z,2.70
2023-03-24T03:45:55.178Z,3.65
2023-03-24T03:48:29.186Z,5.30
2023-03-24T03:51:10.125Z,3.83
2023-03-24T03:53:51.077Z,3.13
2023-03-24T03:56:25.348Z,3.03
2023-03-24T03:59:35.275Z,3.10
2023-03-24T04:02:47.347Z,3.67
2023-03-24T04:05:36.662Z,3.95
2023-03-24T04:08:21.992Z,2.95
2023-03-24T04:10:57.388Z,3.75
2023-03-24T04:14:04.639Z,3.15
2023-03-24T04:16:59.805Z,3.17
2023-03-24T04:20:00.320Z,5.47
2023-03-24T04:23:05.042Z,3.95
2023-03-24T04:26:01.613Z,2.00
2023-03-24T04:28:57.949Z,3.03
2023-03-24T04:31:45.059Z,3.75
2023-03-24T04:34:32.221Z,3.03
2023-03-24T04:37:12.320Z,1.90
2023-03-24T04:39:49.598Z,3.13
2023-03-24T04:42:22.822Z,4.57
2023-03-24T04:47:54.000Z,2.92
2023-03-24T04:50:39.727Z,2.40
2023-03-24T04:53:14.528Z,2.80
2023-03-24T04:55:54.124Z,2.20
2023-03-24T04:58:37.895Z,3.85
2023-03-24T05:01:05.881Z,2.40
2023-03-24T05:03:32.613Z,2.42
2023-03-24T05:05:59.320Z,3.78
2023-03-24T05:08:26.035Z,3.05
2023-03-24T05:10:53.020Z,2.85
2023-03-24T05:13:19.763Z,4.45
2023-03-24T05:15:53.223Z,7.53
2023-03-24T05:18:27.635Z,4.95
2023-03-24T05:20:56.324Z,5.15
2023-03-24T05:23:22.708Z,5.60
2023-03-24T05:25:50.122Z,4.75
2023-03-24T05:28:18.451Z,7.45
2023-03-24T05:30:47.390Z,5.20
2023-03-24T05:33:31.124Z,3.95
2023-03-24T05:35:58.730Z,4.72
2023-03-24T05:38:25.538Z,3.85
2023-03-24T05:41:00.885Z,4.68
2023-03-24T05:43:33.037Z,4.68
2023-03-24T05:46:10.277Z,7.32
2023-03-24T05:48:36.706Z,5.88
2023-03-24T05:51:19.622Z,4.45
2023-03-24T05:53:52.095Z,7.05
2023-03-24T05:56:22.522Z,8.80
2023-03-24T05:59:09.411Z,5.70
2023-03-24T06:01:58.469Z,6.28
2023-03-24T06:04:39.148Z,7.47
2023-03-24T06:07:13.150Z,8.63
2023-03-24T06:09:42.360Z,6.28
2023-03-24T06:12:10.954Z,9.18
2023-03-24T06:14:43.780Z,8.38
2023-03-24T06:17:15.786Z,6.60
2023-03-24T06:19:49.329Z,6.03
2023-03-24T06:22:24.241Z,5.57
2023-03-24T06:24:50.664Z,4.88
2023-03-24T06:27:18.718Z,4.80
2023-03-24T06:29:45.690Z,7.93
2023-03-24T06:32:13.896Z,5.72
2023-03-24T06:34:44.004Z,8.43
2023-03-24T06:37:36.086Z,7.13
2023-03-24T06:40:10.214Z,6.88
2023-03-24T06:42:41.246Z,6.57
2023-03-24T06:45:09.332Z,8.85
2023-03-24T06:47:36.173Z,4.88
2023-03-24T06:50:03.316Z,12.40
2023-03-24T06:52:29.800Z,7.25
2023-03-24T06:54:57.518Z,9.90
2023-03-24T06:57:27.324Z,12.48
2023-03-24T07:00:13.705Z,7.00
2023-03-24T07:02:54.883Z,6.72
2023-03-24T07:05:22.450Z,8.88
2023-03-24T07:08:16.917Z,9.95
2023-03-24T07:10:39.768Z,7.65
2023-03-24T07:13:07.459Z,11.68
2023-03-24T07:15:35.757Z,8.40
2023-03-24T07:18:03.498Z,8.90
2023-03-24T07:20:42.705Z,9.70
2023-03-24T07:23:14.871Z,8.48
2023-03-24T07:28:54.607Z,18.73
2023-03-24T07:31:38.095Z,14.48
2023-03-24T07:34:09.158Z,9.98
2023-03-24T07:36:37.566Z,13.05
2023-03-24T07:39:06.864Z,10.52
2023-03-24T07:41:35.025Z,10.77
2023-03-24T07:44:06.172Z,12.32
2023-03-24T07:46:36.829Z,9.15
2023-03-24T07:49:18.285Z,8.90
2023-03-24T07:51:52.139Z,10.52
2023-03-24T07:54:21.926Z,11.25
2023-03-24T07:56:49.079Z,10.27
2023-03-24T07:59:15.632Z,7.72
2023-03-24T08:02:05.351Z,12.07
2023-03-24T08:04:53.663Z,10.45
2023-03-24T08:07:55.462Z,6.70
2023-03-24T08:10:25.124Z,13.18
2023-03-24T08:12:52.055Z,13.50
2023-03-24T08:15:19.134Z,14.27
2023-03-24T08:17:47.364Z,11.10
2023-03-24T08:20:14.573Z,9.48
2023-03-24T08:22:43.213Z,10.35
2023-03-24T08:25:11.439Z,12.23
2023-03-24T08:27:38.954Z,8.85
2023-03-24T08:30:08.435Z,6.22
2023-03-24T08:32:35.510Z,7.78
2023-03-24T08:35:04.793Z,9.95
2023-03-24T08:37:31.434Z,13.63
2023-03-24T08:39:58.470Z,11.32
2023-03-24T08:42:25.656Z,16.23
2023-03-24T08:44:52.753Z,8.63
2023-03-24T08:47:19.178Z,10.73
2023-03-24T08:49:45.800Z,11.73
2023-03-24T08:52:12.197Z,12.88
2023-03-24T08:54:38.739Z,13.93
2023-03-24T08:57:05.286Z,12.38
2023-03-24T08:59:31.700Z,11.63
2023-03-24T09:01:58.276Z,11.57
2023-03-24T09:04:24.707Z,7.30
2023-03-24T09:06:53.462Z,11.93
2023-03-24T09:09:19.849Z,9.95
2023-03-24T09:11:46.626Z,9.23
2023-03-24T09:14:13.029Z,12.05
2023-03-24T09:16:39.624Z,11.25
2023-03-24T09:19:07.311Z,11.60
2023-03-24T09:21:33.725Z,13.38
2023-03-24T09:24:00.755Z,8.98
2023-03-24T09:26:27.142Z,11.35
2023-03-24T09:28:53.509Z,10.55
2023-03-24T09:31:19.922Z,12.55
2023-03-24T09:33:46.784Z,11.63
2023-03-24T09:36:13.322Z,9.00
2023-03-24T09:38:40.219Z,9.73
2023-03-24T09:41:20.862Z,10.35
2023-03-24T09:44:03.372Z,11.38
2023-03-24T09:46:42.193Z,14.05
2023-03-24T09:49:13.299Z,11.20
2023-03-24T09:51:43.896Z,10.80
2023-03-24T09:54:36.639Z,11.15
2023-03-24T09:57:03.915Z,10.30
2023-03-24T09:59:39.538Z,13.48
2023-03-24T10:02:20.456Z,11.18
2023-03-24T10:04:47.430Z,12.48
2023-03-24T10:07:35.826Z,9.23
2023-03-24T10:10:03.335Z,9.68
2023-03-24T10:12:40.092Z,10.07
2023-03-24T10:15:37.808Z,8.68
2023-03-24T10:18:13.893Z,9.52
2023-03-24T10:20:50.246Z,11.82
2023-03-24T10:23:54.897Z,12.00
2023-03-24T10:26:52.025Z,8.02
2023-03-24T10:29:30.743Z,9.13
2023-03-24T10:32:15.484Z,9.15
2023-03-24T10:34:45.239Z,9.32
2023-03-24T10:37:14.102Z,5.38
2023-03-24T10:39:44.578Z,5.45
2023-03-24T10:42:21.656Z,10.07
2023-03-24T10:44:50.901Z,7.28
2023-03-24T10:47:24.073Z,7.13
2023-03-24T10:49:59.438Z,6.13
2023-03-24T10:52:26.336Z,12.65
2023-03-24T10:54:56.195Z,9.48
2023-03-24T10:57:24.579Z,11.18
2023-03-24T10:59:55.924Z,8.57
2023-03-24T11:02:25.890Z,8.10
2023-03-24T11:04:57.914Z,8.30
2023-03-24T11:07:31.027Z,4.70
2023-03-24T11:10:09.880Z,7.65
2023-03-24T11:12:42.821Z,8.70
2023-03-24T11:15:22.905Z,4.20
2023-03-24T11:17:59.434Z,7.25
2023-03-24T11:20:32.609Z,8.52
2023-03-24T11:25:52.748Z,6.00
2023-03-24T11:28:26.267Z,9.32
2023-03-24T11:30:55.355Z,8.00
2023-03-24T11:33:36.247Z,5.13
2023-03-24T11:36:28.333Z,9.95
2023-03-24T11:39:17.495Z,5.60
2023-03-24T11:41:52.470Z,6.32
2023-03-24T11:44:24.762Z,9.60
2023-03-24T11:46:55.961Z,7.13
2023-03-24T11:49:27.312Z,7.20
2023-03-24T11:51:55.444Z,4.72
2023-03-24T11:54:29.605Z,7.40
2023-03-24T11:57:02.543Z,8.38
2023-03-24T11:59:39.798Z,5.55
2023-03-24T12:02:40.889Z,8.80
2023-03-24T12:05:39.297Z,7.88
2023-03-24T12:08:34.692Z,6.68
2023-03-24T12:11:16.220Z,5.10
2023-03-24T12:13:50.460Z,6.55
2023-03-24T12:16:21.769Z,5.70
2023-03-24T12:19:13.219Z,8.60
2023-03-24T12:21:58.363Z,8.45
2023-03-24T12:25:00.760Z,7.68
2023-03-24T12:27:52.282Z,8.68
2023-03-24T12:30:50.728Z,11.90
2023-03-24T12:33:31.120Z,7.90
2023-03-24T12:36:37.084Z,10.05
2023-03-24T12:39:13.091Z,5.88
2023-03-24T12:42:04.676Z,9.95
2023-03-24T12:44:51.415Z,6.35
2023-03-24T12:47:44.170Z,6.20
2023-03-24T12:50:25.841Z,6.38
2023-03-24T12:53:12.678Z,6.18
2023-03-24T12:55:48.191Z,6.88
2023-03-24T12:58:37.601Z,6.85
2023-03-24T13:01:22.627Z,7.43
2023-03-24T13:04:07.757Z,6.53
2023-03-24T13:06:40.683Z,9.55
2023-03-24T13:09:25.677Z,8.48
2023-03-24T13:12:13.660Z,6.43
2023-03-24T13:15:03.824Z,6.45
2023-03-24T13:17:40.412Z,7.55
2023-03-24T13:20:13.985Z,5.95
2023-03-24T13:22:41.246Z,7.82
2023-03-24T13:25:26.751Z,6.07
2023-03-24T13:27:59.233Z,6.68
2023-03-24T13:30:38.551Z,6.93
2023-03-24T13:33:16.823Z,8.30
2023-03-24T13:36:04.672Z,5.95
2023-03-24T13:38:43.409Z,9.20
2023-03-24T13:41:24.017Z,5.32
2023-03-24T13:43:58.893Z,10.88
2023-03-24T13:46:25.650Z,8.73
2023-03-24T13:48:56.183Z,7.18
2023-03-24T13:51:35.713Z,7.80
2023-03-24T13:54:14.173Z,2.47
2023-03-24T13:56:48.999Z,2.88
2023-03-24T13:59:26.134Z,3.67
2023-03-24T14:02:17.477Z,4.03
2023-03-24T14:05:03.819Z,4.03
2023-03-24T14:07:32.391Z,3.92
2023-03-24T14:10:24.755Z,5.00
2023-03-24T14:13:00.286Z,6.00
2023-03-24T14:15:41.200Z,5.07
2023-03-24T14:18:34.732Z,4.65
2023-03-24T14:21:03.677Z,5.10
2023-03-24T14:23:43.847Z,5.82
2023-03-24T14:26:23.186Z,4.15
2023-03-24T14:28:54.262Z,2.75
2023-03-24T14:31:24.549Z,2.47
2023-03-24T14:33:54.494Z,5.32
2023-03-24T14:36:31.119Z,5.53
2023-03-24T14:39:23.360Z,5.95
2023-03-24T14:41:51.926Z,3.67
2023-03-24T14:44:49.209Z,3.50
2023-03-24T14:47:21.533Z,4.30
2023-03-24T14:49:51.411Z,4.32
2023-03-24T14:52:35.075Z,6.80
2023-03-24T14:57:54.663Z,4.43
2023-03-24T15:00:27.245Z,5.30
2023-03-24T15:03:01.895Z,5.10
2023-03-24T15:05:31.219Z,4.13
2023-03-24T15:08:18.930Z,5.25
2023-03-24T15:10:53.224Z,2.97
2023-03-24T15:13:57.300Z,3.28
2023-03-24T15:16:27.334Z,5.07
2023-03-24T15:19:09.874Z,3.17
2023-03-24T15:21:46.601Z,6.53
2023-03-24T15:24:22.262Z,5.07
2023-03-24T15:27:07.432Z,3.42
2023-03-24T15:29:42.373Z,5.13
2023-03-24T15:32:21.690Z,5.15
2023-03-24T15:34:53.288Z,7.20
2023-03-24T15:37:32.430Z,5.15
2023-03-24T15:40:09.106Z,7.32
2023-03-24T15:42:44.741Z,8.50
2023-03-24T15:45:24.761Z,9.30
2023-03-24T15:47:53.490Z,5.78
2023-03-24T15:50:38.221Z,12.98
2023-03-24T15:53:24.856Z,6.45
2023-03-24T15:56:05.308Z,13.82
2023-03-24T15:58:46.726Z,5.53
2023-03-24T16:01:17.451Z,7.57
2023-03-24T16:03:48.222Z,3.97
2023-03-24T16:06:24.300Z,5.45
2023-03-24T16:08:50.753Z,4.68
2023-03-24T16:11:17.195Z,3.63
2023-03-24T16:13:45.564Z,4.38
2023-03-24T16:16:14.828Z,4.13
2023-03-24T16:18:48.959Z,3.25
2023-03-24T16:21:16.523Z,2.47
2023-03-24T16:23:43.866Z,3.42
2023-03-24T16:26:15.324Z,5.25
2023-03-24T16:28:41.942Z,4.80
2023-03-24T16:31:17.840Z,3.75
2023-03-24T16:33:44.294Z,1.98
2023-03-24T16:36:12.202Z,3.25
2023-03-24T16:38:38.796Z,2.15
2023-03-24T16:41:05.665Z,4.72
2023-03-24T16:43:34.094Z,3.28
2023-03-24T16:46:00.674Z,3.92
2023-03-24T16:48:27.147Z,3.17
2023-03-24T16:50:54.806Z,4.75
2023-03-24T16:53:21.605Z,4.03
2023-03-24T16:55:48.467Z,3.80
2023-03-24T16:58:16.359Z,2.10
2023-03-24T17:00:43.800Z,2.72
2023-03-24T17:03:10.788Z,3.25
2023-03-24T17:05:43.000Z,4.75
2023-03-24T17:08:10.348Z,4.60
2023-03-24T17:10:37.522Z,4.45
2023-03-24T17:13:03.925Z,3.22
2023-03-24T17:15:31.635Z,2.78
2023-03-24T17:17:58.246Z,3.05
2023-03-24T17:20:24.907Z,4.90
2023-03-24T17:22:54.230Z,5.18
2023-03-24T17:25:22.728Z,3.85
2023-03-24T17:27:50.666Z,2.65
2023-03-24T17:30:20.340Z,3.83
2023-03-24T17:32:46.948Z,4.22
2023-03-24T17:35:16.542Z,5.22
2023-03-24T17:37:43.224Z,3.67
2023-03-24T17:40:10.714Z,4.18
2023-03-24T17:42:38.956Z,3.55
2023-03-24T17:45:07.759Z,4.57
2023-03-24T17:47:34.725Z,4.70
2023-03-24T17:50:01.259Z,7.32
2023-03-24T17:52:27.709Z,5.63
2023-03-24T17:54:54.150Z,5.55
2023-03-24T17:57:20.848Z,3.95
2023-03-24T17:59:47.349Z,3.75
2023-03-24T18:02:13.748Z,3.50
2023-03-24T18:04:40.130Z,7.00
2023-03-24T18:07:06.938Z,3.67
2023-03-24T18:09:34.081Z,3.97
2023-03-24T18:12:00.808Z,3.95
2023-03-24T18:14:27.307Z,4.07
2023-03-24T18:16:53.837Z,5.05
2023-03-24T18:19:20.690Z,4.55
2023-03-24T18:21:47.291Z,4.07
2023-03-24T18:24:13.647Z,3.28
2023-03-24T18:26:40.325Z,2.88
2023-03-24T18:29:06.861Z,4.00
2023-03-24T18:31:33.871Z,7.85
2023-03-24T18:34:00.539Z,4.03
2023-03-24T18:36:27.166Z,5.38
2023-03-24T18:39:05.766Z,5.32
2023-03-24T18:41:36.646Z,3.15
2023-03-24T18:44:05.575Z,4.45
2023-03-24T18:46:32.099Z,4.88
2023-03-24T18:48:58.942Z,5.75
2023-03-24T18:51:26.497Z,3.60
2023-03-24T18:53:53.118Z,5.97
2023-03-24T18:56:21.774Z,5.60
2023-03-24T18:58:50.953Z,4.03
2023-03-24T19:01:23.120Z,4.00
2023-03-24T19:03:50.806Z,4.03
2023-03-24T19:06:18.083Z,7.88
2023-03-24T19:08:49.357Z,6.68
2023-03-24T19:11:16.315Z,5.60
2023-03-24T19:13:49.655Z,8.50
2023-03-24T19:16:17.840Z,7.10
2023-03-24T19:18:44.620Z,5.40
2023-03-24T19:21:12.629Z,6.63
2023-03-24T19:23:39.105Z,6.30
2023-03-24T19:26:05.608Z,6.22
2023-03-24T19:28:33.870Z,5.40
2023-03-24T19:31:08.624Z,5.35
2023-03-24T19:33:36.615Z,5.80
2023-03-24T19:36:05.116Z,7.65
2023-03-24T19:38:32.353Z,5.07
2023-03-24T19:41:04.938Z,7.22
2023-03-24T19:43:32.923Z,5.43
2023-03-24T19:45:59.406Z,3.67
2023-03-24T19:48:26.281Z,5.03
2023-03-24T19:50:54.605Z,4.18
2023-03-24T19:53:22.321Z,6.38
2023-03-24T19:55:49.654Z,6.45
2023-03-24T19:58:17.130Z,5.40
2023-03-24T20:00:43.882Z,3.40
2023-03-24T20:03:10.948Z,3.95
2023-03-24T20:05:37.543Z,6.38
2023-03-24T20:08:04.160Z,3.58
2023-03-24T20:10:30.562Z,5.25
2023-03-24T20:12:57.116Z,2.45
2023-03-24T20:15:23.541Z,3.55
2023-03-24T20:17:50.485Z,5.90
2023-03-24T20:20:16.998Z,3.08
2023-03-24T20:22:45.674Z,3.13
2023-03-24T20:25:14.408Z,2.70
2023-03-24T20:27:41.135Z,4.97
2023-03-24T20:30:08.245Z,4.40
2023-03-24T20:32:35.620Z,3.60
2023-03-24T20:35:03.927Z,3.13
2023-03-24T20:37:30.876Z,3.05
2023-03-24T20:39:57.251Z,4.90
2023-03-24T20:42:24.385Z,1.52
2023-03-24T20:44:50.933Z,2.58
2023-03-24T20:47:19.063Z,1.67
2023-03-24T20:49:45.752Z,3.38
2023-03-24T20:52:14.240Z,2.28
2023-03-24T20:54:41.551Z,3.33
2023-03-24T20:57:12.725Z,1.75
2023-03-24T20:59:39.449Z,2.97
2023-03-24T21:02:06.533Z,3.28
2023-03-24T21:04:33.589Z,3.72
2023-03-24T21:07:00.044Z,2.17
2023-03-24T21:09:27.550Z,4.03
2023-03-24T21:11:54.147Z,3.67
2023-03-24T21:14:20.857Z,3.15
2023-03-24T21:16:47.466Z,3.22
2023-03-24T21:19:14.588Z,2.35
2023-03-24T21:21:42.740Z,4.15
2023-03-24T21:24:09.222Z,3.45
2023-03-24T21:26:35.594Z,5.93
2023-03-24T21:29:01.973Z,6.32
2023-03-24T21:31:29.584Z,3.72
2023-03-24T21:33:56.812Z,1.45
2023-03-24T21:36:25.050Z,3.65
2023-03-24T21:38:53.801Z,3.38
2023-03-24T21:41:21.254Z,3.63
2023-03-24T21:43:50.973Z,3.13
2023-03-24T21:46:22.229Z,3.20
2023-03-24T21:48:55.626Z,4.15
2023-03-24T21:51:25.184Z,5.63
2023-03-24T21:53:59.108Z,4.13
2023-03-24T21:56:25.526Z,3.85
2023-03-24T21:58:55.130Z,5.15
2023-03-24T22:01:22.526Z,4.32
2023-03-24T22:03:50.614Z,3.83
2023-03-24T22:06:17.275Z,3.60
2023-03-24T22:08:44.340Z,5.05
2023-03-24T22:11:11.561Z,2.55
2023-03-24T22:13:39.175Z,4.13
2023-03-24T22:16:07.076Z,2.75
2023-03-24T22:18:35.225Z,3.47
2023-03-24T22:21:04.590Z,5.22
2023-03-24T22:23:33.305Z,6.53
2023-03-24T22:26:04.101Z,3.80
2023-03-24T22:28:32.822Z,4.00
2023-03-24T22:31:07.892Z,6.88
2023-03-24T22:33:34.738Z,4.95
2023-03-24T22:36:02.291Z,6.72
2023-03-24T22:38:29.524Z,8.25
2023-03-24T22:41:05.187Z,4.10
2023-03-24T22:43:32.004Z,6.60
2023-03-24T22:45:58.697Z,14.43
2023-03-24T22:48:25.532Z,10.98
2023-03-24T22:50:53.083Z,4.43
2023-03-24T22:53:20.260Z,2.67
2023-03-24T22:55:46.659Z,3.47
2023-03-24T22:58:13.766Z,9.07
2023-03-24T23:00:41.638Z,7.25
2023-03-24T23:03:08.712Z,2.90
2023-03-24T23:05:39.834Z,5.63
2023-03-24T23:08:07.301Z,3.63
2023-03-24T23:10:33.778Z,5.40
2023-03-24T23:13:00.349Z,5.18
2023-03-24T23:15:26.724Z,4.03
2023-03-24T23:17:53.131Z,4.55
2023-03-24T23:20:20.046Z,3.83
2023-03-24T23:22:47.660Z,5.03
2023-03-24T23:25:14.853Z,5.57
2023-03-24T23:27:42.176Z,6.15
2023-03-24T23:30:11.428Z,3.65
2023-03-24T23:32:38.840Z,3.88
2023-03-24T23:35:06.886Z,4.28
2023-03-24T23:37:34.038Z,5.32
2023-03-24T23:40:12.320Z,3.83
2023-03-24T23:42:40.774Z,5.32
2023-03-24T23:45:09.018Z,5.25
2023-03-24T23:47:36.700Z,6.10
2023-03-24T23:50:07.195Z,4.75
2023-03-24T23:52:34.806Z,6.05
2023-03-24T23:55:04.621Z,3.47
2023-03-24T23:57:31.665Z,4.35
2023-03-24T23:59:59.789Z,2.47
